sensor_id;sensor_type;location;lat;lon;timestamp;temperature;humidity
34472;DHT22;20710;49.976;19.836;2022-11-21T00:00:38;-0.07;84.71
34472;DHT22;20710;49.976;19.836;2022-11-21T00:06:40;-0.10;84.79
34472;DHT22;20710;49.976;19.836;2022-11-21T00:12:41;-0.14;84.31
34472;DHT22;20710;49.976;19.836;2022-11-21T00:18:43;-0.25;83.38
34472;DHT22;20710;49.976;19.836;2022-11-21T00:24:44;-0.29;84.00
34472;DHT22;20710;49.976;19.836;2022-11-21T00:30:45;-0.43;84.06
34472;DHT22;20710;49.976;19.836;2022-11-21T00:36:46;-0.56;83.88
34472;DHT22;20710;49.976;19.836;2022-11-21T00:42:47;-0.69;83.37
34472;DHT22;20710;49.976;19.836;2022-11-21T00:48:48;-0.67;83.78
34472;DHT22;20710;49.976;19.836;2022-11-21T00:54:50;-0.74;83.80
34472;DHT22;20710;49.976;19.836;2022-11-21T01:00:51;-0.77;83.59
34472;DHT22;20710;49.976;19.836;2022-11-21T01:06:53;-0.76;83.67
34472;DHT22;20710;49.976;19.836;2022-11-21T01:12:54;-0.73;84.16
34472;DHT22;20710;49.976;19.836;2022-11-21T01:18:56;-0.74;84.19
34472;DHT22;20710;49.976;19.836;2022-11-21T01:24:58;-0.76;84.34
34472;DHT22;20710;49.976;19.836;2022-11-21T01:31:07;-0.74;84.26
34472;DHT22;20710;49.976;19.836;2022-11-21T01:37:09;-0.76;84.22
34472;DHT22;20710;49.976;19.836;2022-11-21T01:43:14;-0.81;84.09
34472;DHT22;20710;49.976;19.836;2022-11-21T01:49:24;-0.83;84.12
34472;DHT22;20710;49.976;19.836;2022-11-21T01:55:26;-0.81;84.22
34472;DHT22;20710;49.976;19.836;2022-11-21T02:01:28;-0.78;84.09
34472;DHT22;20710;49.976;19.836;2022-11-21T02:07:33;-0.83;83.99
34472;DHT22;20710;49.976;19.836;2022-11-21T02:13:35;-1.02;83.37
34472;DHT22;20710;49.976;19.836;2022-11-21T02:26:00;-1.18;82.83
34472;DHT22;20710;49.976;19.836;2022-11-21T02:32:05;-1.29;82.79
34472;DHT22;20710;49.976;19.836;2022-11-21T02:38:20;-1.40;82.47
34472;DHT22;20710;49.976;19.836;2022-11-21T02:51:06;-1.50;82.48
34472;DHT22;20710;49.976;19.836;2022-11-21T02:57:08;-1.77;81.60
34472;DHT22;20710;49.976;19.836;2022-11-21T03:03:09;-1.94;81.46
34472;DHT22;20710;49.976;19.836;2022-11-21T03:09:10;-2.05;81.65
34472;DHT22;20710;49.976;19.836;2022-11-21T03:15:14;-2.12;82.00
34472;DHT22;20710;49.976;19.836;2022-11-21T03:21:15;-2.06;82.55
34472;DHT22;20710;49.976;19.836;2022-11-21T03:27:17;-2.12;82.23
34472;DHT22;20710;49.976;19.836;2022-11-21T03:33:18;-2.20;81.87
34472;DHT22;20710;49.976;19.836;2022-11-21T03:39:19;-2.33;81.71
34472;DHT22;20710;49.976;19.836;2022-11-21T03:45:20;-2.46;81.20
34472;DHT22;20710;49.976;19.836;2022-11-21T03:51:22;-2.58;81.29
34472;DHT22;20710;49.976;19.836;2022-11-21T03:57:23;-2.60;81.38
34472;DHT22;20710;49.976;19.836;2022-11-21T04:03:25;-2.63;81.61
34472;DHT22;20710;49.976;19.836;2022-11-21T04:09:26;-2.64;81.72
34472;DHT22;20710;49.976;19.836;2022-11-21T04:15:27;-2.65;82.14
34472;DHT22;20710;49.976;19.836;2022-11-21T04:21:29;-2.72;82.11
34472;DHT22;20710;49.976;19.836;2022-11-21T04:27:30;-2.65;82.18
34472;DHT22;20710;49.976;19.836;2022-11-21T04:33:32;-2.65;82.02
34472;DHT22;20710;49.976;19.836;2022-11-21T04:39:33;-2.65;81.67
34472;DHT22;20710;49.976;19.836;2022-11-21T04:45:34;-2.63;81.58
34472;DHT22;20710;49.976;19.836;2022-11-21T04:51:35;-2.63;81.39
34472;DHT22;20710;49.976;19.836;2022-11-21T04:57:36;-2.63;81.53
34472;DHT22;20710;49.976;19.836;2022-11-21T05:03:38;-2.60;80.94
34472;DHT22;20710;49.976;19.836;2022-11-21T05:09:42;-2.68;80.52
34472;DHT22;20710;49.976;19.836;2022-11-21T05:15:44;-2.72;80.65
34472;DHT22;20710;49.976;19.836;2022-11-21T05:21:46;-2.67;80.92
34472;DHT22;20710;49.976;19.836;2022-11-21T05:27:47;-2.65;81.38
34472;DHT22;20710;49.976;19.836;2022-11-21T05:33:48;-2.70;80.66
34472;DHT22;20710;49.976;19.836;2022-11-21T05:39:49;-2.81;80.49
34472;DHT22;20710;49.976;19.836;2022-11-21T05:45:51;-2.89;80.40
34472;DHT22;20710;49.976;19.836;2022-11-21T05:51:52;-2.92;80.50
34472;DHT22;20710;49.976;19.836;2022-11-21T05:57:59;-2.88;80.76
34472;DHT22;20710;49.976;19.836;2022-11-21T06:04:00;-2.85;81.14
34472;DHT22;20710;49.976;19.836;2022-11-21T06:10:02;-2.92;80.52
34472;DHT22;20710;49.976;19.836;2022-11-21T06:16:13;-2.86;80.84
34472;DHT22;20710;49.976;19.836;2022-11-21T06:22:15;-2.92;81.06
34472;DHT22;20710;49.976;19.836;2022-11-21T06:28:16;-2.98;80.70
34472;DHT22;20710;49.976;19.836;2022-11-21T06:34:17;-3.02;80.83
34472;DHT22;20710;49.976;19.836;2022-11-21T06:40:20;-2.98;80.92
34472;DHT22;20710;49.976;19.836;2022-11-21T06:46:21;-2.92;80.97
34472;DHT22;20710;49.976;19.836;2022-11-21T06:52:23;-2.85;80.98
34472;DHT22;20710;49.976;19.836;2022-11-21T06:58:24;-2.80;81.09
34472;DHT22;20710;49.976;19.836;2022-11-21T07:04:28;-2.68;81.32
34472;DHT22;20710;49.976;19.836;2022-11-21T07:10:30;-2.50;81.52
34472;DHT22;20710;49.976;19.836;2022-11-21T07:16:32;-2.16;82.76
34472;DHT22;20710;49.976;19.836;2022-11-21T07:22:34;-1.73;83.97
34472;DHT22;20710;49.976;19.836;2022-11-21T07:28:35;-1.21;82.93
34472;DHT22;20710;49.976;19.836;2022-11-21T07:34:36;-0.47;83.33
34472;DHT22;20710;49.976;19.836;2022-11-21T07:40:37;0.37;81.52
34472;DHT22;20710;49.976;19.836;2022-11-21T07:46:38;1.14;79.63
34472;DHT22;20710;49.976;19.836;2022-11-21T07:52:40;1.89;78.36
34472;DHT22;20710;49.976;19.836;2022-11-21T07:58:41;2.31;77.35
34472;DHT22;20710;49.976;19.836;2022-11-21T08:04:42;2.81;75.93
34472;DHT22;20710;49.976;19.836;2022-11-21T08:10:44;3.25;75.64
34472;DHT22;20710;49.976;19.836;2022-11-21T08:16:52;3.63;74.97
34472;DHT22;20710;49.976;19.836;2022-11-21T08:22:53;4.08;74.37
34472;DHT22;20710;49.976;19.836;2022-11-21T08:28:54;4.36;73.57
34472;DHT22;20710;49.976;19.836;2022-11-21T08:34:56;4.57;72.70
34472;DHT22;20710;49.976;19.836;2022-11-21T08:40:58;4.40;71.88
34472;DHT22;20710;49.976;19.836;2022-11-21T08:47:18;4.33;73.81
34472;DHT22;20710;49.976;19.836;2022-11-21T08:53:20;4.74;73.88
34472;DHT22;20710;49.976;19.836;2022-11-21T08:59:22;5.14;73.32
34472;DHT22;20710;49.976;19.836;2022-11-21T09:05:23;5.34;74.78
34472;DHT22;20710;49.976;19.836;2022-11-21T09:11:24;5.50;73.39
34472;DHT22;20710;49.976;19.836;2022-11-21T09:17:25;5.72;72.33
34472;DHT22;20710;49.976;19.836;2022-11-21T09:23:45;5.40;71.66
34472;DHT22;20710;49.976;19.836;2022-11-21T09:29:46;5.13;73.66
34472;DHT22;20710;49.976;19.836;2022-11-21T09:35:48;4.69;73.89
34472;DHT22;20710;49.976;19.836;2022-11-21T09:48:50;4.19;75.20
34472;DHT22;20710;49.976;19.836;2022-11-21T09:54:57;4.01;76.35
34472;DHT22;20710;49.976;19.836;2022-11-21T10:00:57;3.98;77.17
34472;DHT22;20710;49.976;19.836;2022-11-21T10:07:06;4.06;78.59
34472;DHT22;20710;49.976;19.836;2022-11-21T10:13:40;4.15;78.32
34472;DHT22;20710;49.976;19.836;2022-11-21T10:32:50;4.37;78.92
34472;DHT22;20710;49.976;19.836;2022-11-21T10:39:02;4.54;78.74
34472;DHT22;20710;49.976;19.836;2022-11-21T10:45:03;4.67;78.54
34472;DHT22;20710;49.976;19.836;2022-11-21T10:51:33;4.79;78.49
34472;DHT22;20710;49.976;19.836;2022-11-21T10:57:48;4.99;78.50
34472;DHT22;20710;49.976;19.836;2022-11-21T11:10:23;5.17;78.25
34472;DHT22;20710;49.976;19.836;2022-11-21T11:16:27;5.24;78.04
34472;DHT22;20710;49.976;19.836;2022-11-21T11:22:29;5.28;78.04
34472;DHT22;20710;49.976;19.836;2022-11-21T11:28:41;5.33;77.90
34472;DHT22;20710;49.976;19.836;2022-11-21T12:16:30;5.90;77.94
34472;DHT22;20710;49.976;19.836;2022-11-21T12:42:44;5.72;77.75
34472;DHT22;20710;49.976;19.836;2022-11-21T13:03:37;5.72;79.02
34472;DHT22;20710;49.976;19.836;2022-11-21T13:30:17;5.81;80.61
34472;DHT22;20710;49.976;19.836;2022-11-21T13:36:39;5.85;80.76
34472;DHT22;20710;49.976;19.836;2022-11-21T13:43:22;5.92;80.71
34472;DHT22;20710;49.976;19.836;2022-11-21T13:56:11;5.90;80.80
34472;DHT22;20710;49.976;19.836;2022-11-21T14:36:18;4.88;80.15
34472;DHT22;20710;49.976;19.836;2022-11-21T14:42:36;4.78;80.20
34472;DHT22;20710;49.976;19.836;2022-11-21T14:48:37;4.63;79.89
34472;DHT22;20710;49.976;19.836;2022-11-21T14:54:59;4.47;79.78
34472;DHT22;20710;49.976;19.836;2022-11-21T15:01:20;4.30;79.93
34472;DHT22;20710;49.976;19.836;2022-11-21T15:07:34;4.12;80.04
34472;DHT22;20710;49.976;19.836;2022-11-21T15:13:33;4.02;83.34
34472;DHT22;20710;49.976;19.836;2022-11-21T15:33:24;3.99;82.48
34472;DHT22;20710;49.976;19.836;2022-11-21T15:59:28;3.63;82.78
34472;DHT22;20710;49.976;19.836;2022-11-21T16:05:32;3.57;82.85
34472;DHT22;20710;49.976;19.836;2022-11-21T16:11:42;3.54;82.91
34472;DHT22;20710;49.976;19.836;2022-11-21T16:30:41;3.49;83.96
34472;DHT22;20710;49.976;19.836;2022-11-21T16:36:45;3.47;83.99
34472;DHT22;20710;49.976;19.836;2022-11-21T17:15:51;3.42;84.40
34472;DHT22;20710;49.976;19.836;2022-11-21T17:21:52;3.43;84.08
34472;DHT22;20710;49.976;19.836;2022-11-21T17:28:07;3.40;84.49
34472;DHT22;20710;49.976;19.836;2022-11-21T17:41:05;3.47;84.96
34472;DHT22;20710;49.976;19.836;2022-11-21T19:23:41;3.25;85.67
34472;DHT22;20710;49.976;19.836;2022-11-21T19:30:02;3.29;85.75
34472;DHT22;20710;49.976;19.836;2022-11-21T19:50:23;3.35;86.33
34472;DHT22;20710;49.976;19.836;2022-11-21T19:56:25;3.35;86.40
34472;DHT22;20710;49.976;19.836;2022-11-21T20:02:40;3.38;86.46
34472;DHT22;20710;49.976;19.836;2022-11-21T20:08:42;3.43;86.16
34472;DHT22;20710;49.976;19.836;2022-11-21T20:14:44;3.39;86.51
34472;DHT22;20710;49.976;19.836;2022-11-21T20:27:10;3.33;85.84
34472;DHT22;20710;49.976;19.836;2022-11-21T20:54:07;3.43;87.29
34472;DHT22;20710;49.976;19.836;2022-11-21T21:13:41;3.45;87.61
34472;DHT22;20710;49.976;19.836;2022-11-21T21:20:40;3.43;87.66
34472;DHT22;20710;49.976;19.836;2022-11-21T21:54:17;3.38;87.54
34472;DHT22;20710;49.976;19.836;2022-11-21T22:07:06;3.25;87.80
34472;DHT22;20710;49.976;19.836;2022-11-21T22:19:38;3.09;87.58
34472;DHT22;20710;49.976;19.836;2022-11-21T22:25:40;2.98;87.03
34472;DHT22;20710;49.976;19.836;2022-11-21T22:31:41;2.83;86.88
34472;DHT22;20710;49.976;19.836;2022-11-21T22:37:53;2.73;87.15
34472;DHT22;20710;49.976;19.836;2022-11-21T22:44:22;2.62;87.36
34472;DHT22;20710;49.976;19.836;2022-11-21T23:10:06;1.67;86.99
34472;DHT22;20710;49.976;19.836;2022-11-21T23:16:25;1.63;87.02
34472;DHT22;20710;49.976;19.836;2022-11-21T23:22:33;1.58;87.24
34472;DHT22;20710;49.976;19.836;2022-11-21T23:42:04;1.12;87.40
34472;DHT22;20710;49.976;19.836;2022-11-21T23:48:24;1.01;87.38
34472;DHT22;20710;49.976;19.836;2022-11-21T23:54:34;0.96;87.41
